createdAt,value
2018-12-16T00:02:02.629Z,516.15
2018-12-16T00:04:31.023Z,517.33
2018-12-16T00:06:59.334Z,515.03
2018-12-16T00:09:27.749Z,518.92
2018-12-16T00:11:56.098Z,522.73
2018-12-16T00:14:24.511Z,521.45
2018-12-16T00:16:52.867Z,516.42
2018-12-16T00:19:21.321Z,518.15
2018-12-16T00:21:49.665Z,515.62
2018-12-16T00:24:18.324Z,515.00
2018-12-16T00:26:59.460Z,512.38
2018-12-16T00:29:28.770Z,515.58
2018-12-16T00:31:57.536Z,514.27
2018-12-16T00:34:26.714Z,512.45
2018-12-16T00:36:55.078Z,526.48
2018-12-16T00:39:23.659Z,512.85
2018-12-16T00:41:52.893Z,511.00
2018-12-16T00:44:21.544Z,513.27
2018-12-16T00:46:49.896Z,508.68
2018-12-16T00:49:18.276Z,520.85
2018-12-16T00:51:46.812Z,530.17
2018-12-16T00:54:15.138Z,520.15
2018-12-16T00:56:43.621Z,520.02
2018-12-16T00:59:12.179Z,532.30
2018-12-16T01:01:40.527Z,521.22
2018-12-16T01:04:08.969Z,525.38
2018-12-16T01:06:39.315Z,529.57
2018-12-16T01:09:07.782Z,532.70
2018-12-16T01:11:36.142Z,520.33
2018-12-16T01:14:04.808Z,523.42
2018-12-16T01:16:33.261Z,526.50
2018-12-16T01:19:01.597Z,529.90
2018-12-16T01:21:31.291Z,520.27
2018-12-16T01:23:59.629Z,519.40
2018-12-16T01:26:27.934Z,524.52
2018-12-16T01:28:57.054Z,522.05
2018-12-16T01:31:25.740Z,523.73
2018-12-16T01:33:54.166Z,526.48
2018-12-16T01:36:22.543Z,525.30
2018-12-16T01:38:50.883Z,522.50
2018-12-16T01:41:19.295Z,531.70
2018-12-16T01:43:47.595Z,537.88
2018-12-16T01:46:16.476Z,528.05
2018-12-16T01:48:44.857Z,528.70
2018-12-16T01:51:13.262Z,531.05
2018-12-16T01:53:41.848Z,527.20
2018-12-16T01:56:13.198Z,527.02
2018-12-16T01:58:41.674Z,527.50
2018-12-16T02:01:09.983Z,524.30
2018-12-16T02:03:38.360Z,519.73
2018-12-16T02:06:06.691Z,519.67
2018-12-16T02:08:35.014Z,522.63
2018-12-16T02:11:03.340Z,514.92
2018-12-16T02:13:31.919Z,523.60
2018-12-16T02:16:00.269Z,515.02
2018-12-16T02:18:28.628Z,523.78
2018-12-16T02:20:57.705Z,522.73
2018-12-16T02:23:27.236Z,524.73
2018-12-16T02:25:56.511Z,522.05
2018-12-16T02:28:24.957Z,523.10
2018-12-16T02:30:53.324Z,517.92
2018-12-16T02:33:21.818Z,524.10
2018-12-16T02:35:50.396Z,524.73
2018-12-16T02:38:18.795Z,524.08
2018-12-16T02:40:47.122Z,519.52
2018-12-16T02:43:15.581Z,520.38
2018-12-16T02:45:44.025Z,519.88
2018-12-16T02:48:12.455Z,526.90
2018-12-16T02:53:38.382Z,529.95
2018-12-16T02:56:06.745Z,525.50
2018-12-16T02:58:35.792Z,527.70
2018-12-16T03:01:04.474Z,528.92
2018-12-16T03:03:33.059Z,524.33
2018-12-16T03:06:01.446Z,524.50
2018-12-16T03:08:30.255Z,523.50
2018-12-16T03:10:58.589Z,522.27
2018-12-16T03:13:27.136Z,524.15
2018-12-16T03:15:55.690Z,523.58
2018-12-16T03:18:24.010Z,526.45
2018-12-16T03:20:52.342Z,522.23
2018-12-16T03:23:20.711Z,527.75
2018-12-16T03:25:49.373Z,526.22
2018-12-16T03:28:17.724Z,530.15
2018-12-16T03:30:46.079Z,534.60
2018-12-16T03:33:15.170Z,530.10
2018-12-16T03:35:43.892Z,532.47
2018-12-16T03:38:12.234Z,532.20
2018-12-16T03:40:40.648Z,537.17
2018-12-16T03:43:09.036Z,535.25
2018-12-16T03:45:37.369Z,531.17
2018-12-16T03:48:05.866Z,538.12
2018-12-16T03:50:34.239Z,535.70
2018-12-16T03:53:02.899Z,532.73
2018-12-16T03:55:31.274Z,528.95
2018-12-16T03:57:59.636Z,534.20
2018-12-16T04:00:28.321Z,529.40
2018-12-16T04:02:56.616Z,524.20
2018-12-16T04:05:25.085Z,530.67
2018-12-16T04:07:53.824Z,533.25
2018-12-16T04:10:22.577Z,533.07
2018-12-16T04:12:51.004Z,532.05
2018-12-16T04:15:19.346Z,531.45
2018-12-16T04:17:48.076Z,536.12
2018-12-16T04:20:16.411Z,532.58
2018-12-16T04:22:45.129Z,537.75
2018-12-16T04:25:13.447Z,525.63
2018-12-16T04:27:42.478Z,526.22
2018-12-16T04:30:10.958Z,532.70
2018-12-16T04:32:39.602Z,533.40
2018-12-16T04:35:07.954Z,526.40
2018-12-16T04:37:36.451Z,535.35
2018-12-16T04:40:05.873Z,527.08
2018-12-16T04:42:35.136Z,534.83
2018-12-16T04:45:03.647Z,529.23
2018-12-16T04:47:32.166Z,533.87
2018-12-16T04:50:00.478Z,534.85
2018-12-16T04:52:29.101Z,534.63
2018-12-16T04:54:57.520Z,536.17
2018-12-16T04:57:25.870Z,535.75
2018-12-16T04:59:54.169Z,540.30
2018-12-16T05:02:22.636Z,542.35
2018-12-16T05:04:50.958Z,538.70
2018-12-16T05:07:19.325Z,542.77
2018-12-16T05:09:47.774Z,538.37
2018-12-16T05:12:16.589Z,532.80
2018-12-16T05:14:44.964Z,533.25
2018-12-16T05:17:13.343Z,538.05
2018-12-16T05:19:41.943Z,540.05
2018-12-16T05:22:10.304Z,545.08
2018-12-16T05:24:38.751Z,538.90
2018-12-16T05:27:07.084Z,535.80
2018-12-16T05:29:35.453Z,529.42
2018-12-16T05:32:04.735Z,530.33
2018-12-16T05:34:33.124Z,525.42
2018-12-16T05:37:01.450Z,523.78
2018-12-16T05:39:29.998Z,529.40
2018-12-16T05:41:58.470Z,520.97
2018-12-16T05:44:26.909Z,520.35
2018-12-16T05:46:55.265Z,525.38
2018-12-16T05:49:23.818Z,521.77
2018-12-16T05:51:52.169Z,524.38
2018-12-16T05:54:20.683Z,520.17
2018-12-16T05:56:49.054Z,519.17
2018-12-16T05:59:17.396Z,523.53
2018-12-16T06:01:45.801Z,520.10
2018-12-16T06:04:14.931Z,515.77
2018-12-16T06:06:43.283Z,512.23
2018-12-16T06:09:11.609Z,516.77
2018-12-16T06:11:41.455Z,515.85
2018-12-16T06:14:10.782Z,512.90
2018-12-16T06:16:39.457Z,509.40
2018-12-16T06:19:07.782Z,509.93
2018-12-16T06:21:36.986Z,507.00
2018-12-16T06:24:05.318Z,513.30
2018-12-16T06:26:33.635Z,510.35
2018-12-16T06:29:02.143Z,517.63
2018-12-16T06:31:31.476Z,514.70
2018-12-16T06:33:59.908Z,520.42
2018-12-16T06:36:28.352Z,520.98
2018-12-16T06:38:56.698Z,525.62
2018-12-16T06:41:25.148Z,517.15
2018-12-16T06:43:53.495Z,516.80
2018-12-16T06:46:22.120Z,511.65
2018-12-16T06:48:50.629Z,521.90
2018-12-16T06:51:20.908Z,523.50
2018-12-16T06:53:49.701Z,522.45
2018-12-16T06:56:18.085Z,529.58
2018-12-16T06:58:47.020Z,525.58
2018-12-16T07:01:16.079Z,526.70
2018-12-16T07:03:44.494Z,525.72
2018-12-16T07:06:12.962Z,527.02
2018-12-16T07:08:42.182Z,527.57
2018-12-16T07:11:11.441Z,524.97
2018-12-16T07:13:39.909Z,528.95
2018-12-16T07:16:08.285Z,525.20
2018-12-16T07:18:37.723Z,523.45
2018-12-16T07:21:06.074Z,525.87
2018-12-16T07:23:34.542Z,531.10
2018-12-16T07:26:02.889Z,523.42
2018-12-16T07:28:31.254Z,528.70
2018-12-16T07:30:59.844Z,532.25
2018-12-16T07:33:28.183Z,526.48
2018-12-16T07:35:56.527Z,531.50
2018-12-16T07:38:24.898Z,535.83
2018-12-16T07:40:54.193Z,535.10
2018-12-16T07:43:22.540Z,523.62
2018-12-16T07:45:51.228Z,536.10
2018-12-16T07:48:19.891Z,534.73
2018-12-16T07:50:48.493Z,532.77
2018-12-16T07:53:16.799Z,523.42
2018-12-16T07:55:45.210Z,526.77
2018-12-16T07:58:13.648Z,526.15
2018-12-16T08:00:42.007Z,530.13
2018-12-16T08:03:10.396Z,520.67
2018-12-16T08:05:38.713Z,534.27
2018-12-16T08:08:07.872Z,531.80
2018-12-16T08:10:36.200Z,520.15
2018-12-16T08:13:04.495Z,529.08
2018-12-16T08:15:32.913Z,527.57
2018-12-16T08:18:01.215Z,532.65
2018-12-16T08:20:30.463Z,521.22
2018-12-16T08:22:58.778Z,530.92
2018-12-16T08:25:27.242Z,518.30
2018-12-16T08:27:56.632Z,514.55
2018-12-16T08:30:25.129Z,533.47
2018-12-16T08:32:53.509Z,522.67
2018-12-16T08:35:21.851Z,523.60
2018-12-16T08:37:50.162Z,518.63
2018-12-16T08:40:18.540Z,518.48
2018-12-16T08:42:47.000Z,517.90
2018-12-16T08:45:15.325Z,516.80
2018-12-16T08:47:44.613Z,517.15
2018-12-16T08:50:13.054Z,512.95
2018-12-16T08:52:42.137Z,516.17
2018-12-16T08:55:10.530Z,521.53
2018-12-16T08:57:39.858Z,525.05
2018-12-16T09:00:08.546Z,528.45
2018-12-16T09:02:36.884Z,528.60
2018-12-16T09:05:05.319Z,525.75
2018-12-16T09:07:37.229Z,526.52
2018-12-16T09:10:08.080Z,525.02
2018-12-16T09:12:36.688Z,529.85
2018-12-16T09:15:07.313Z,523.17
2018-12-16T09:17:35.710Z,524.62
2018-12-16T09:20:04.812Z,522.85
2018-12-16T09:22:34.159Z,533.17
2018-12-16T09:25:02.738Z,527.75
2018-12-16T09:27:31.187Z,521.87
2018-12-16T09:30:00.513Z,512.85
2018-12-16T09:32:28.890Z,528.08
2018-12-16T09:34:57.238Z,525.80
2018-12-16T09:37:26.076Z,523.13
2018-12-16T09:39:54.434Z,518.47
2018-12-16T09:42:22.903Z,524.73
2018-12-16T09:44:51.354Z,524.83
2018-12-16T09:47:20.052Z,537.23
2018-12-16T09:49:48.471Z,530.75
2018-12-16T09:52:16.812Z,532.92
2018-12-16T09:54:45.108Z,526.27
2018-12-16T09:57:13.576Z,521.45
2018-12-16T09:59:42.830Z,518.42
2018-12-16T10:02:11.220Z,521.27
2018-12-16T10:04:39.737Z,525.20
2018-12-16T10:07:08.177Z,545.85
2018-12-16T10:09:36.485Z,515.90
2018-12-16T10:12:05.003Z,516.80
2018-12-16T10:14:34.258Z,514.97
2018-12-16T10:17:03.508Z,529.83
2018-12-16T10:19:31.914Z,528.45
2018-12-16T10:22:00.334Z,530.87
2018-12-16T10:24:28.680Z,517.10
2018-12-16T10:26:57.085Z,523.13
2018-12-16T10:29:25.427Z,519.47
2018-12-16T10:31:53.756Z,510.93
2018-12-16T10:34:22.120Z,515.80
2018-12-16T10:36:50.436Z,522.13
2018-12-16T10:39:18.739Z,514.08
2018-12-16T10:41:47.214Z,536.80
2018-12-16T10:44:15.558Z,509.93
2018-12-16T10:46:46.957Z,511.65
2018-12-16T10:49:15.341Z,515.30
2018-12-16T10:51:43.663Z,517.90
2018-12-16T10:54:11.974Z,519.67
2018-12-16T10:56:40.276Z,519.17
2018-12-16T10:59:08.588Z,524.92
2018-12-16T11:01:36.947Z,529.00
2018-12-16T11:04:05.342Z,533.98
2018-12-16T11:06:33.822Z,542.48
2018-12-16T11:09:02.291Z,540.95
2018-12-16T11:11:30.635Z,542.17
2018-12-16T11:13:59.253Z,528.73
2018-12-16T11:16:27.742Z,524.15
2018-12-16T11:18:56.118Z,528.75
2018-12-16T11:21:25.078Z,537.05
2018-12-16T11:23:54.030Z,532.20
2018-12-16T11:26:22.673Z,540.23
2018-12-16T11:28:51.402Z,538.33
2018-12-16T11:31:19.907Z,536.58
2018-12-16T11:33:48.250Z,532.88
2018-12-16T11:36:16.637Z,531.23
2018-12-16T11:41:44.221Z,534.00
2018-12-16T11:44:12.649Z,529.23
2018-12-16T11:46:41.050Z,528.20
2018-12-16T11:49:10.150Z,511.95
2018-12-16T11:51:39.119Z,509.30
2018-12-16T11:54:07.442Z,516.85
2018-12-16T11:56:35.762Z,524.70
2018-12-16T11:59:04.086Z,519.42
2018-12-16T12:01:32.432Z,524.80
2018-12-16T12:04:03.461Z,514.63
2018-12-16T12:06:31.869Z,523.50
2018-12-16T12:09:00.213Z,524.27
2018-12-16T12:11:28.520Z,538.27
2018-12-16T12:13:56.960Z,529.15
2018-12-16T12:16:25.380Z,529.85
2018-12-16T12:18:59.704Z,526.65
2018-12-16T12:21:28.140Z,531.35
2018-12-16T12:23:56.543Z,539.40
2018-12-16T12:26:25.466Z,525.67
2018-12-16T12:28:53.779Z,527.45
2018-12-16T12:31:22.266Z,542.33
2018-12-16T12:33:51.187Z,551.22
2018-12-16T12:36:19.547Z,535.97
2018-12-16T12:38:47.943Z,547.23
2018-12-16T12:41:16.257Z,532.30
2018-12-16T12:43:45.230Z,544.85
2018-12-16T12:46:13.578Z,543.70
2018-12-16T12:48:41.896Z,550.63
2018-12-16T12:51:10.226Z,549.47
2018-12-16T12:53:40.437Z,542.50
2018-12-16T12:56:08.879Z,545.15
2018-12-16T12:58:37.290Z,548.33
2018-12-16T13:01:05.715Z,543.23
2018-12-16T13:03:34.123Z,556.13
2018-12-16T13:06:02.541Z,570.45
2018-12-16T13:08:31.628Z,563.50
2018-12-16T13:10:59.974Z,557.20
2018-12-16T13:13:28.329Z,561.05
2018-12-16T13:15:56.787Z,565.85
2018-12-16T13:18:25.331Z,560.95
2018-12-16T13:20:53.794Z,558.35
2018-12-16T13:23:22.208Z,557.83
2018-12-16T13:26:01.744Z,554.12
2018-12-16T13:28:30.144Z,557.38
2018-12-16T13:30:58.456Z,564.35
2018-12-16T13:33:26.802Z,561.05
2018-12-16T13:35:56.143Z,565.17
2018-12-16T13:38:25.220Z,558.77
2018-12-16T13:40:54.550Z,558.77
2018-12-16T13:43:23.608Z,557.00
2018-12-16T13:45:52.036Z,563.10
2018-12-16T13:48:20.402Z,555.27
2018-12-16T13:50:49.327Z,560.50
2018-12-16T13:53:18.595Z,558.05
2018-12-16T13:55:46.963Z,567.45
2018-12-16T13:58:15.602Z,557.83
2018-12-16T14:00:44.163Z,559.73
2018-12-16T14:03:12.592Z,560.95
2018-12-16T14:05:46.662Z,560.25
2018-12-16T14:08:11.296Z,558.15
2018-12-16T14:10:39.720Z,550.27
2018-12-16T14:13:08.166Z,552.88
2018-12-16T14:15:36.592Z,559.25
2018-12-16T14:18:05.931Z,553.25
2018-12-16T14:20:34.392Z,550.22
2018-12-16T14:23:02.696Z,557.90
2018-12-16T14:25:31.045Z,550.25
2018-12-16T14:28:00.468Z,561.05
2018-12-16T14:30:28.873Z,555.60
2018-12-16T14:32:57.306Z,552.13
2018-12-16T14:35:25.881Z,549.27
2018-12-16T14:37:54.389Z,551.27
2018-12-16T14:40:22.817Z,557.33
2018-12-16T14:42:51.272Z,540.42
2018-12-16T14:45:19.631Z,548.80
2018-12-16T14:47:48.186Z,553.62
2018-12-16T14:50:16.608Z,548.17
2018-12-16T14:52:44.942Z,549.33
2018-12-16T14:55:13.374Z,542.48
2018-12-16T14:57:41.774Z,538.00
2018-12-16T15:00:10.271Z,536.15
2018-12-16T15:02:38.599Z,534.73
2018-12-16T15:05:07.317Z,532.53
2018-12-16T15:07:36.634Z,540.47
2018-12-16T15:10:06.814Z,541.83
2018-12-16T15:12:35.230Z,540.85
2018-12-16T15:15:04.070Z,536.75
2018-12-16T15:17:32.457Z,538.47
2018-12-16T15:20:00.791Z,536.30
2018-12-16T15:22:29.226Z,532.70
2018-12-16T15:24:57.651Z,535.27
2018-12-16T15:27:26.921Z,537.38
2018-12-16T15:29:55.370Z,545.50
2018-12-16T15:32:23.710Z,538.67
2018-12-16T15:34:54.100Z,542.70
2018-12-16T15:37:22.451Z,544.52
2018-12-16T15:39:50.826Z,539.57
2018-12-16T15:42:19.229Z,546.17
2018-12-16T15:44:47.767Z,539.58
2018-12-16T15:47:16.076Z,542.27
2018-12-16T15:49:44.550Z,553.23
2018-12-16T15:52:12.969Z,542.80
2018-12-16T15:54:41.432Z,537.72
2018-12-16T15:57:09.818Z,551.33
2018-12-16T15:59:38.676Z,540.95
2018-12-16T16:02:07.013Z,540.12
2018-12-16T16:04:35.345Z,542.53
2018-12-16T16:07:03.707Z,544.47
2018-12-16T16:09:32.756Z,537.50
2018-12-16T16:12:01.236Z,535.85
2018-12-16T16:14:30.112Z,544.30
2018-12-16T16:16:59.185Z,532.05
2018-12-16T16:19:28.400Z,534.58
2018-12-16T16:21:56.783Z,539.52
2018-12-16T16:24:25.105Z,540.05
2018-12-16T16:26:53.500Z,533.13
2018-12-16T16:29:21.901Z,537.98
2018-12-16T16:31:50.414Z,532.67
2018-12-16T16:34:18.880Z,537.17
2018-12-16T16:36:47.275Z,535.45
2018-12-16T16:39:15.658Z,523.90
2018-12-16T16:41:44.014Z,531.75
2018-12-16T16:44:12.361Z,524.20
2018-12-16T16:46:40.763Z,522.15
2018-12-16T16:49:09.143Z,527.95
2018-12-16T16:51:37.454Z,528.77
2018-12-16T16:54:05.890Z,540.02
2018-12-16T16:56:34.257Z,533.40
2018-12-16T16:59:02.582Z,524.20
2018-12-16T17:01:31.039Z,524.75
2018-12-16T17:03:59.389Z,537.58
2018-12-16T17:06:28.365Z,526.90
2018-12-16T17:08:57.704Z,521.53
2018-12-16T17:11:26.902Z,524.52
2018-12-16T17:13:56.430Z,533.95
2018-12-16T17:16:25.717Z,528.77
2018-12-16T17:18:54.511Z,537.35
2018-12-16T17:21:23.975Z,534.35
2018-12-16T17:23:52.397Z,524.55
2018-12-16T17:26:21.860Z,531.02
2018-12-16T17:28:50.332Z,525.75
2018-12-16T17:31:18.641Z,522.55
2018-12-16T17:33:46.986Z,528.35
2018-12-16T17:36:15.295Z,532.55
2018-12-16T17:38:43.655Z,531.27
2018-12-16T17:41:12.080Z,525.67
2018-12-16T17:43:40.588Z,529.80
2018-12-16T17:46:10.117Z,530.00
2018-12-16T17:48:38.753Z,538.92
2018-12-16T17:51:07.102Z,537.85
2018-12-16T17:53:35.526Z,547.60
2018-12-16T17:56:04.122Z,549.10
2018-12-16T17:58:34.130Z,542.15
2018-12-16T18:01:03.353Z,546.30
2018-12-16T18:03:31.662Z,549.25
2018-12-16T18:06:00.129Z,560.23
2018-12-16T18:08:28.530Z,570.65
2018-12-16T18:10:56.917Z,565.55
2018-12-16T18:13:25.388Z,569.73
2018-12-16T18:15:53.820Z,557.12
2018-12-16T18:18:23.114Z,568.87
2018-12-16T18:20:51.569Z,563.15
2018-12-16T18:23:19.937Z,563.03
2018-12-16T18:25:49.283Z,566.65
2018-12-16T18:28:17.619Z,570.62
2018-12-16T18:30:45.998Z,558.23
2018-12-16T18:33:14.508Z,564.50
2018-12-16T18:35:42.956Z,560.17
2018-12-16T18:38:12.200Z,556.33
2018-12-16T18:40:41.437Z,553.98
2018-12-16T18:43:09.755Z,554.00
2018-12-16T18:45:38.149Z,558.87
2018-12-16T18:48:06.483Z,563.15
2018-12-16T18:50:35.024Z,558.70
2018-12-16T18:53:03.372Z,556.67
2018-12-16T18:55:31.716Z,554.50
2018-12-16T18:58:00.088Z,548.60
2018-12-16T19:00:28.592Z,546.95
2018-12-16T19:02:57.301Z,545.80
2018-12-16T19:05:25.682Z,543.97
2018-12-16T19:07:54.106Z,550.95
2018-12-16T19:10:22.459Z,551.35
2018-12-16T19:12:51.426Z,548.80
2018-12-16T19:15:20.168Z,547.48
2018-12-16T19:17:48.526Z,547.50
2018-12-16T19:20:16.957Z,551.02
2018-12-16T19:22:46.317Z,549.67
2018-12-16T19:25:14.779Z,545.15
2018-12-16T19:27:43.953Z,544.43
2018-12-16T19:30:12.469Z,540.52
2018-12-16T19:32:41.745Z,539.27
2018-12-16T19:35:10.200Z,547.87
2018-12-16T19:37:38.661Z,544.35
2018-12-16T19:40:07.098Z,541.38
2018-12-16T19:42:36.384Z,540.52
2018-12-16T19:45:05.908Z,542.40
2018-12-16T19:47:35.242Z,529.87
2018-12-16T19:50:04.955Z,528.55
2018-12-16T19:52:34.745Z,534.73
2018-12-16T19:55:03.431Z,544.00
2018-12-16T19:57:31.812Z,543.77
2018-12-16T20:00:00.328Z,549.88
2018-12-16T20:02:28.784Z,552.90
2018-12-16T20:05:02.900Z,535.40
2018-12-16T20:07:32.059Z,544.83
2018-12-16T20:10:00.530Z,548.65
2018-12-16T20:12:28.889Z,553.88
2018-12-16T20:14:57.313Z,547.77
2018-12-16T20:17:25.600Z,546.05
2018-12-16T20:19:54.544Z,554.60
2018-12-16T20:22:23.892Z,560.15
2018-12-16T20:24:52.304Z,559.85
2018-12-16T20:27:20.705Z,568.20
2018-12-16T20:29:49.050Z,552.95
2018-12-16T20:32:17.509Z,551.30
2018-12-16T20:34:45.839Z,553.58
2018-12-16T20:37:14.197Z,550.62
2018-12-16T20:39:42.536Z,540.70
2018-12-16T20:42:11.844Z,545.35
2018-12-16T20:44:40.236Z,547.70
2018-12-16T20:47:09.182Z,552.33
2018-12-16T20:49:37.640Z,558.33
2018-12-16T20:52:05.985Z,560.70
2018-12-16T20:54:35.358Z,554.33
2018-12-16T20:57:03.690Z,560.43
2018-12-16T20:59:32.156Z,557.67
2018-12-16T21:02:00.466Z,550.05
2018-12-16T21:04:28.837Z,546.83
2018-12-16T21:06:57.255Z,542.08
2018-12-16T21:09:25.631Z,541.30
2018-12-16T21:11:59.595Z,543.37
2018-12-16T21:14:33.848Z,557.12
2018-12-16T21:17:07.712Z,558.30
2018-12-16T21:19:36.252Z,545.47
2018-12-16T21:22:08.624Z,558.40
2018-12-16T21:24:39.358Z,548.95
2018-12-16T21:27:08.010Z,548.37
2018-12-16T21:29:36.427Z,539.67
2018-12-16T21:32:04.853Z,547.83
2018-12-16T21:34:33.181Z,544.80
2018-12-16T21:37:01.513Z,547.50
2018-12-16T21:39:30.849Z,545.67
2018-12-16T21:41:59.258Z,551.50
2018-12-16T21:44:27.642Z,561.12
2018-12-16T21:46:55.962Z,550.42
2018-12-16T21:49:24.426Z,579.58
2018-12-16T21:51:53.413Z,571.53
2018-12-16T21:54:21.759Z,595.65
2018-12-16T21:56:50.253Z,641.02
2018-12-16T21:59:18.608Z,673.62
2018-12-16T22:01:47.041Z,622.03
2018-12-16T22:04:15.396Z,597.33
2018-12-16T22:06:43.818Z,572.27
2018-12-16T22:09:13.080Z,600.25
2018-12-16T22:11:41.396Z,646.92
2018-12-16T22:14:10.618Z,631.20
2018-12-16T22:16:39.161Z,668.05
2018-12-16T22:19:08.283Z,615.85
2018-12-16T22:21:36.783Z,596.77
2018-12-16T22:24:06.102Z,590.88
2018-12-16T22:26:35.158Z,585.70
2018-12-16T22:29:03.533Z,583.12
2018-12-16T22:31:31.917Z,629.38
2018-12-16T22:34:01.842Z,623.45
2018-12-16T22:36:30.371Z,631.75
2018-12-16T22:38:58.681Z,588.05
2018-12-16T22:41:27.046Z,632.77
2018-12-16T22:43:55.492Z,604.12
2018-12-16T22:46:24.090Z,584.05
2018-12-16T22:48:52.506Z,590.40
2018-12-16T22:51:21.771Z,575.25
2018-12-16T22:53:50.861Z,569.30
2018-12-16T22:56:19.269Z,568.40
2018-12-16T22:58:54.208Z,562.33
2018-12-16T23:01:18.607Z,565.00
2018-12-16T23:03:46.963Z,572.55
2018-12-16T23:06:15.936Z,562.80
2018-12-16T23:08:47.357Z,558.85
2018-12-16T23:11:16.406Z,562.48
2018-12-16T23:13:45.504Z,567.27
2018-12-16T23:16:13.835Z,560.05
2018-12-16T23:18:42.485Z,562.95
2018-12-16T23:21:11.274Z,570.17
2018-12-16T23:23:39.822Z,592.08
2018-12-16T23:26:08.366Z,580.30
2018-12-16T23:28:36.795Z,579.08
2018-12-16T23:31:05.245Z,577.70
2018-12-16T23:33:33.528Z,581.92
2018-12-16T23:36:01.962Z,571.60
2018-12-16T23:38:30.944Z,572.95
2018-12-16T23:40:59.401Z,581.75
2018-12-16T23:43:27.750Z,570.15
2018-12-16T23:45:56.180Z,565.00
2018-12-16T23:48:24.491Z,574.45
2018-12-16T23:50:53.764Z,570.65
2018-12-16T23:53:24.024Z,566.92
2018-12-16T23:55:52.504Z,565.10
2018-12-16T23:58:20.832Z,562.52
